Time;durP1;ratioP1;P1;durP2;ratioP2;P2;SDS_P1;SDS_P2;PMS_P1;PMS_P2;Temp;Humidity;BMP_temperature;BMP_pressure;BME280_temperature;BME280_humidity;BME280_pressure;Samples;Min_cycle;Max_cycle;Signal;HPM_P1;HPM_P2
2023/06/10 14:34:57;;;;;;;6.38;2.72;;;;;;;;;;4988144;27;20153;-81
2023/06/10 14:37:26;;;;;;;7.63;2.83;;;;;;;;;;4994860;28;112752;-81
2023/06/10 14:39:53;;;;;;;12.65;3.92;;;;;;;;;;4983158;28;20061;-81
2023/06/10 14:42:21;;;;;;;7.70;2.78;;;;;;;;;;5010217;28;20116;-82
2023/06/10 14:44:53;;;;;;;10.40;3.03;;;;;;;;;;5027026;28;20049;-82
2023/06/10 14:47:47;;;;;;;7.38;2.55;;;;;;;;;;5045805;28;20128;-82
2023/06/10 14:50:13;;;;;;;9.00;2.67;;;;;;;;;;5029933;28;20065;-82
2023/06/10 14:52:41;;;;;;;8.63;2.30;;;;;;;;;;5014305;28;20522;-82
2023/06/10 14:55:14;;;;;;;7.97;2.60;;;;;;;;;;5013650;28;20042;-81
2023/06/10 14:57:41;;;;;;;8.90;2.45;;;;;;;;;;5026943;28;20114;-82
2023/06/10 15:00:10;;;;;;;7.20;2.50;;;;;;;;;;5010714;28;20609;-82
2023/06/10 15:02:37;;;;;;;6.05;2.35;;;;;;;;;;5015459;28;20196;-82
2023/06/10 15:05:06;;;;;;;8.73;2.20;;;;;;;;;;5008267;28;20046;-82
2023/06/10 15:07:34;;;;;;;5.40;1.95;;;;;;;;;;5023405;28;20048;-82
2023/06/10 15:10:01;;;;;;;8.73;2.33;;;;;;;;;;5009222;28;20121;-82
2023/06/10 15:12:30;;;;;;;7.22;2.65;;;;;;;;;;5031276;28;20132;-81
2023/06/10 15:14:57;;;;;;;9.65;3.00;;;;;;;;;;5043757;28;20050;-82
2023/06/10 15:17:30;;;;;;;9.80;2.63;;;;;;;;;;5023824;28;20157;-82
2023/06/10 15:19:57;;;;;;;7.05;2.67;;;;;;;;;;5010648;28;20103;-82
2023/06/10 15:22:25;;;;;;;8.75;3.05;;;;;;;;;;5027165;28;20108;-82
2023/06/10 15:24:54;;;;;;;6.07;2.60;;;;;;;;;;5011190;28;20038;-82
2023/06/10 15:27:21;;;;;;;10.40;2.42;;;;;;;;;;5010689;28;20129;-81
2023/06/10 15:29:49;;;;;;;6.60;2.63;;;;;;;;;;5002173;28;20048;-81
2023/06/10 15:32:41;;;;;;;8.48;2.20;;;;;;;;;;5012409;28;20037;-81
2023/06/10 15:35:09;;;;;;;5.68;2.30;;;;;;;;;;5011855;28;20133;-81
2023/06/10 15:37:37;;;;;;;10.07;2.13;;;;;;;;;;5012206;28;20046;-80
2023/06/10 15:40:06;;;;;;;9.27;2.42;;;;;;;;;;5010742;28;20108;-81
2023/06/10 15:42:34;;;;;;;14.85;4.93;;;;;;;;;;5041362;28;20069;-80
2023/06/10 15:45:02;;;;;;;9.43;2.60;;;;;;;;;;5004128;28;20044;-80
2023/06/10 15:47:29;;;;;;;5.88;2.00;;;;;;;;;;5028900;28;20436;-81
2023/06/10 15:49:57;;;;;;;11.48;2.95;;;;;;;;;;4999437;28;20050;-80
2023/06/10 15:52:35;;;;;;;5.78;2.35;;;;;;;;;;5006551;28;20046;-81
2023/06/10 15:55:04;;;;;;;8.30;2.55;;;;;;;;;;4994657;28;20057;-80
2023/06/10 15:57:31;;;;;;;6.20;1.98;;;;;;;;;;4997396;28;20042;-80
2023/06/10 15:59:59;;;;;;;7.68;2.50;;;;;;;;;;4998168;28;20408;-81
2023/06/10 16:02:28;;;;;;;6.07;2.30;;;;;;;;;;4982213;28;20092;-80
2023/06/10 16:05:02;;;;;;;9.70;2.72;;;;;;;;;;4999829;28;20045;-81
2023/06/10 16:07:29;;;;;;;10.07;2.13;;;;;;;;;;5000133;28;20042;-81
2023/06/10 16:10:02;;;;;;;10.68;2.60;;;;;;;;;;4999820;28;20136;-81
2023/06/10 16:12:30;;;;;;;6.93;2.40;;;;;;;;;;5002956;28;20129;-81
2023/06/10 16:15:04;;;;;;;7.55;2.55;;;;;;;;;;5000026;28;20129;-80
2023/06/10 16:17:32;;;;;;;6.13;2.42;;;;;;;;;;4999708;28;20039;-81
2023/06/10 16:19:59;;;;;;;9.98;2.53;;;;;;;;;;5031088;28;20054;-81
2023/06/10 16:22:27;;;;;;;7.75;2.65;;;;;;;;;;5009001;28;20521;-82
2023/06/10 16:24:55;;;;;;;7.38;2.13;;;;;;;;;;5030072;28;20045;-81
2023/06/10 16:27:28;;;;;;;6.35;2.08;;;;;;;;;;4997030;28;20050;-82
2023/06/10 16:29:55;;;;;;;9.18;2.47;;;;;;;;;;5012096;28;20624;-81
2023/06/10 16:32:23;;;;;;;5.97;2.30;;;;;;;;;;5028162;28;20112;-80
2023/06/10 16:34:51;;;;;;;9.13;2.33;;;;;;;;;;4997102;28;20166;-80
2023/06/10 16:37:20;;;;;;;5.72;2.28;;;;;;;;;;4997570;28;20051;-80
2023/06/10 16:39:47;;;;;;;6.75;2.20;;;;;;;;;;5012414;28;20542;-80
2023/06/10 16:42:15;;;;;;;8.30;2.47;;;;;;;;;;4997696;28;20044;-80
2023/06/10 16:44:43;;;;;;;4.88;2.30;;;;;;;;;;5010095;28;20054;-80
2023/06/10 16:47:15;;;;;;;11.18;2.45;;;;;;;;;;4994943;28;20937;-80
2023/06/10 16:49:43;;;;;;;8.38;2.60;;;;;;;;;;4998454;28;20115;-79
2023/06/10 16:52:13;;;;;;;6.43;2.70;;;;;;;;;;4998380;28;20608;-80
2023/06/10 16:54:41;;;;;;;7.60;2.85;;;;;;;;;;5010208;28;20160;-80
2023/06/10 16:57:10;;;;;;;8.77;2.95;;;;;;;;;;4992001;28;20049;-79
2023/06/10 16:59:37;;;;;;;13.52;2.80;;;;;;;;;;5026493;28;20948;-80
2023/06/10 17:02:06;;;;;;;7.53;2.47;;;;;;;;;;5009426;28;20153;-80
2023/06/10 17:04:33;;;;;;;6.32;2.22;;;;;;;;;;4987149;28;20042;-80
2023/06/10 17:07:29;;;;;;;9.88;2.45;;;;;;;;;;5002218;28;20165;-80
2023/06/10 17:09:57;;;;;;;8.23;2.50;;;;;;;;;;4994000;28;20077;-80
2023/06/10 17:12:35;;;;;;;14.95;7.47;;;;;;;;;;4993637;28;20042;-80
2023/06/10 17:15:02;;;;;;;8.43;3.20;;;;;;;;;;5010724;28;20042;-80
2023/06/10 17:17:29;;;;;;;9.77;3.83;;;;;;;;;;4994632;28;20048;-79
2023/06/10 17:19:57;;;;;;;9.52;3.70;;;;;;;;;;4996373;28;20053;-80
2023/06/10 17:22:25;;;;;;;8.85;3.72;;;;;;;;;;5014501;28;20423;-79
2023/06/10 17:24:53;;;;;;;9.10;3.80;;;;;;;;;;4995333;28;20050;-78
2023/06/10 17:27:21;;;;;;;7.68;2.92;;;;;;;;;;4995888;28;20046;-79
2023/06/10 17:29:51;;;;;;;12.95;3.22;;;;;;;;;;4993567;28;20042;-79
2023/06/10 17:32:19;;;;;;;8.05;2.80;;;;;;;;;;5008514;28;20041;-80
2023/06/10 17:34:47;;;;;;;9.27;3.47;;;;;;;;;;5024578;28;20054;-80
2023/06/10 17:37:15;;;;;;;5.82;2.47;;;;;;;;;;5000930;28;20141;-80
2023/06/10 17:39:43;;;;;;;7.68;3.20;;;;;;;;;;4995910;28;20133;-81
2023/06/10 17:42:11;;;;;;;6.30;2.75;;;;;;;;;;4993557;28;20065;-83
2023/06/10 17:44:59;;;;;;;9.65;2.42;;;;;;;;;;4991646;28;20135;-82
2023/06/10 17:47:27;;;;;;;7.15;2.78;;;;;;;;;;4992673;28;20037;-80
2023/06/10 17:49:55;;;;;;;8.30;2.70;;;;;;;;;;5028452;28;20100;-80
2023/06/10 17:52:23;;;;;;;6.38;2.35;;;;;;;;;;4996604;28;20038;-80
2023/06/10 17:54:51;;;;;;;7.10;2.65;;;;;;;;;;5026021;28;20048;-81
2023/06/10 17:57:19;;;;;;;11.95;2.63;;;;;;;;;;5025661;28;20507;-81
2023/06/10 17:59:48;;;;;;;7.50;2.60;;;;;;;;;;4996611;28;20318;-81
2023/06/10 18:02:15;;;;;;;7.00;2.65;;;;;;;;;;4996690;28;20057;-81
2023/06/10 18:04:43;;;;;;;6.40;2.40;;;;;;;;;;5025905;28;20550;-81
2023/06/10 18:07:11;;;;;;;8.40;2.35;;;;;;;;;;5027620;28;20053;-81
2023/06/10 18:09:43;;;;;;;10.57;2.28;;;;;;;;;;4994420;28;20054;-82
2023/06/10 18:12:15;;;;;;;11.60;2.80;;;;;;;;;;4997800;28;20048;-81
2023/06/10 18:14:44;;;;;;;7.70;2.88;;;;;;;;;;4996608;28;20045;-81
2023/06/10 18:17:11;;;;;;;6.20;2.47;;;;;;;;;;4996385;28;20054;-81
2023/06/10 18:19:40;;;;;;;7.53;2.17;;;;;;;;;;4996353;28;20125;-81
2023/06/10 18:22:07;;;;;;;7.78;2.70;;;;;;;;;;5026630;28;20060;-81
2023/06/10 18:24:35;;;;;;;9.73;2.28;;;;;;;;;;4996471;28;20046;-82
2023/06/10 18:27:04;;;;;;;14.85;2.88;;;;;;;;;;4996252;28;20046;-81
2023/06/10 18:29:31;;;;;;;7.85;2.53;;;;;;;;;;4996773;28;20481;-81
2023/06/10 18:32:00;;;;;;;10.38;2.10;;;;;;;;;;5027072;28;20077;-81
2023/06/10 18:34:35;;;;;;;6.68;2.47;;;;;;;;;;5000016;28;20463;-82
2023/06/10 18:37:06;;;;;;;7.15;2.17;;;;;;;;;;4995315;28;20141;-81
2023/06/10 18:39:39;;;;;;;7.22;2.78;;;;;;;;;;5025852;28;20111;-81
2023/06/10 18:42:34;;;;;;;11.23;2.92;;;;;;;;;;5027291;28;20081;-81
2023/06/10 18:45:06;;;;;;;8.30;2.35;;;;;;;;;;4995219;28;20646;-81
2023/06/10 18:48:21;;;;;;;8.57;2.75;;;;;;;;;;4995447;28;20411;-82
2023/06/10 18:50:49;;;;;;;7.57;2.70;;;;;;;;;;4994321;28;20052;-81
2023/06/10 18:53:17;;;;;;;9.95;2.75;;;;;;;;;;4991104;28;20054;-80
2023/06/10 18:55:50;;;;;;;7.40;2.63;;;;;;;;;;4991929;28;20392;-81
2023/06/10 18:58:17;;;;;;;7.63;2.22;;;;;;;;;;4986838;28;20092;-81
2023/06/10 19:00:45;;;;;;;9.10;2.60;;;;;;;;;;5024479;28;20050;-81
2023/06/10 19:03:13;;;;;;;10.07;2.65;;;;;;;;;;4993103;28;20050;-81
2023/06/10 19:05:41;;;;;;;15.18;3.10;;;;;;;;;;5026619;28;20047;-81
2023/06/10 19:08:10;;;;;;;7.85;2.60;;;;;;;;;;4993110;28;20046;-82
2023/06/10 19:10:37;;;;;;;7.47;2.50;;;;;;;;;;5026277;28;20041;-81
2023/06/10 19:13:05;;;;;;;6.35;2.63;;;;;;;;;;4995389;28;20218;-81
2023/06/10 19:15:33;;;;;;;8.75;2.80;;;;;;;;;;5009195;28;20042;-81
2023/06/10 19:18:05;;;;;;;12.05;2.92;;;;;;;;;;4984775;28;20078;-80
2023/06/10 19:20:34;;;;;;;9.63;2.50;;;;;;;;;;4999582;28;20423;-81
2023/06/10 19:23:02;;;;;;;10.68;2.85;;;;;;;;;;4998648;28;20046;-80
2023/06/10 19:25:36;;;;;;;6.97;2.22;;;;;;;;;;4997706;28;20129;-81
2023/06/10 19:28:06;;;;;;;7.85;2.28;;;;;;;;;;4999998;28;20042;-81
2023/06/10 19:30:39;;;;;;;9.48;3.00;;;;;;;;;;4998558;28;20085;-80
2023/06/10 19:33:07;;;;;;;10.63;2.63;;;;;;;;;;4998568;28;20073;-81
2023/06/10 19:35:38;;;;;;;7.45;2.88;;;;;;;;;;5000128;28;20496;-80
2023/06/10 19:38:05;;;;;;;6.65;2.70;;;;;;;;;;5001970;28;20105;-80
2023/06/10 19:40:33;;;;;;;6.53;2.80;;;;;;;;;;5007340;28;20113;-80
2023/06/10 19:43:02;;;;;;;9.73;2.53;;;;;;;;;;5003848;28;20587;-81
2023/06/10 19:45:29;;;;;;;6.90;2.35;;;;;;;;;;5000957;28;20200;-80
2023/06/10 19:47:57;;;;;;;8.75;2.60;;;;;;;;;;4999447;28;20090;-80
2023/06/10 19:50:35;;;;;;;8.75;2.78;;;;;;;;;;4999414;28;20042;-80
2023/06/10 19:53:03;;;;;;;5.32;2.60;;;;;;;;;;4999198;28;20161;-80
2023/06/10 19:55:31;;;;;;;5.55;2.60;;;;;;;;;;4995545;28;20518;-80
2023/06/10 19:58:27;;;;;;;8.02;2.65;;;;;;;;;;4997632;28;20042;-80
2023/06/10 20:00:55;;;;;;;7.80;2.60;;;;;;;;;;4998034;28;20620;-80
2023/06/10 20:03:23;;;;;;;6.72;2.45;;;;;;;;;;4996991;28;20045;-81
2023/06/10 20:05:51;;;;;;;5.85;2.30;;;;;;;;;;4992700;28;20129;-80
2023/06/10 20:08:21;;;;;;;10.95;2.80;;;;;;;;;;5002830;28;20867;-79
2023/06/10 20:10:53;;;;;;;11.38;2.50;;;;;;;;;;4993527;28;20101;-81
2023/06/10 20:14:13;;;;;;;5.80;2.63;;;;;;;;;;4998734;28;20037;-80
2023/06/10 20:16:42;;;;;;;5.10;2.15;;;;;;;;;;5013330;28;20041;-80
2023/06/10 20:19:15;;;;;;;6.35;2.42;;;;;;;;;;5030056;28;20423;-81
2023/06/10 20:21:43;;;;;;;5.97;2.20;;;;;;;;;;4987525;28;20056;-80
2023/06/10 20:24:15;;;;;;;6.88;2.17;;;;;;;;;;4996364;28;20042;-80
2023/06/10 20:27:09;;;;;;;4.93;2.38;;;;;;;;;;4995277;28;20518;-80
2023/06/10 20:29:37;;;;;;;6.43;2.13;;;;;;;;;;5000541;28;20132;-80
2023/06/10 20:32:06;;;;;;;6.40;1.80;;;;;;;;;;4996165;28;20034;-81
2023/06/10 20:34:33;;;;;;;6.35;2.25;;;;;;;;;;5025901;28;20165;-80
2023/06/10 20:39:55;;;;;;;5.97;2.38;;;;;;;;;;4991527;28;20077;-80
2023/06/10 20:42:23;;;;;;;5.72;2.10;;;;;;;;;;4992351;28;20049;-80
2023/06/10 20:44:55;;;;;;;6.53;2.40;;;;;;;;;;4998114;28;20476;-80
2023/06/10 20:47:23;;;;;;;10.15;2.10;;;;;;;;;;5015272;28;20056;-80
2023/06/10 20:49:51;;;;;;;9.20;2.00;;;;;;;;;;4997717;28;20054;-80
2023/06/10 20:52:20;;;;;;;10.15;1.90;;;;;;;;;;5025613;28;20042;-79
2023/06/10 20:54:47;;;;;;;6.80;2.30;;;;;;;;;;4995963;28;20494;-80
2023/06/10 20:57:16;;;;;;;4.20;2.13;;;;;;;;;;4995556;28;20057;-81
2023/06/10 20:59:44;;;;;;;5.78;2.00;;;;;;;;;;5025589;28;20038;-80
2023/06/10 21:02:11;;;;;;;5.15;2.13;;;;;;;;;;5010358;28;20451;-78
2023/06/10 21:04:39;;;;;;;4.43;1.73;;;;;;;;;;5026746;28;20061;-78
2023/06/10 21:07:07;;;;;;;5.15;1.95;;;;;;;;;;4997828;28;20049;-78
2023/06/10 21:09:35;;;;;;;7.65;2.20;;;;;;;;;;4995402;28;20958;-79
2023/06/10 21:12:05;;;;;;;5.65;1.90;;;;;;;;;;4996699;28;20092;-78
2023/06/10 21:14:56;;;;;;;6.38;2.05;;;;;;;;;;5007848;28;20100;-79
2023/06/10 21:17:23;;;;;;;9.55;2.05;;;;;;;;;;5029531;28;20056;-79
2023/06/10 21:19:51;;;;;;;7.45;1.80;;;;;;;;;;5028366;28;20189;-79
2023/06/10 21:22:20;;;;;;;5.07;1.90;;;;;;;;;;5000178;28;20129;-78
2023/06/10 21:24:48;;;;;;;5.25;1.55;;;;;;;;;;5000805;28;20137;-80
2023/06/10 21:27:15;;;;;;;6.35;2.00;;;;;;;;;;4999558;28;20046;-80
2023/06/10 21:29:44;;;;;;;8.02;2.35;;;;;;;;;;4997905;28;20199;-80
2023/06/10 21:32:12;;;;;;;11.20;2.22;;;;;;;;;;5025960;28;20511;-80
2023/06/10 21:34:39;;;;;;;4.43;2.08;;;;;;;;;;4993415;28;20129;-81
2023/06/10 21:37:08;;;;;;;11.93;2.00;;;;;;;;;;4996079;28;20050;-80
2023/06/10 21:39:35;;;;;;;6.55;1.75;;;;;;;;;;4996164;28;20487;-81
2023/06/10 21:42:06;;;;;;;5.75;1.80;;;;;;;;;;4996580;28;20053;-79
2023/06/10 21:44:34;;;;;;;6.60;2.15;;;;;;;;;;4995885;28;20050;-79
2023/06/10 21:47:06;;;;;;;5.60;1.77;;;;;;;;;;4996800;28;20503;-79
2023/06/10 21:49:39;;;;;;;4.20;1.83;;;;;;;;;;5010858;28;20056;-79
2023/06/10 21:52:07;;;;;;;7.32;2.05;;;;;;;;;;4994915;28;20034;-79
2023/06/10 21:54:36;;;;;;;4.32;1.70;;;;;;;;;;4998473;28;20049;-79
2023/06/10 21:57:05;;;;;;;5.63;1.90;;;;;;;;;;5027778;28;20551;-80
2023/06/10 21:59:36;;;;;;;9.88;1.77;;;;;;;;;;4995642;28;20041;-81
2023/06/10 22:02:05;;;;;;;5.68;1.50;;;;;;;;;;4996625;28;20053;-80
2023/06/10 22:04:33;;;;;;;4.10;1.58;;;;;;;;;;4993188;28;20048;-79
2023/06/10 22:07:06;;;;;;;4.57;1.65;;;;;;;;;;4993396;28;20042;-80
2023/06/10 22:09:34;;;;;;;10.52;1.90;;;;;;;;;;4993393;28;20243;-79
2023/06/10 22:12:11;;;;;;;4.40;1.60;;;;;;;;;;4983235;28;20164;-79
2023/06/10 22:14:40;;;;;;;5.35;1.38;;;;;;;;;;4997239;28;20046;-79
2023/06/10 22:17:08;;;;;;;6.75;1.75;;;;;;;;;;4994567;28;20037;-79
2023/06/10 22:19:43;;;;;;;5.72;1.65;;;;;;;;;;4994760;28;20046;-79
2023/06/10 22:22:10;;;;;;;7.60;1.60;;;;;;;;;;4997401;28;20061;-79
2023/06/10 22:24:37;;;;;;;4.22;2.30;;;;;;;;;;5024553;28;20134;-80
2023/06/10 22:27:09;;;;;;;5.82;1.60;;;;;;;;;;4994382;28;20041;-79
2023/06/10 22:29:41;;;;;;;4.78;1.50;;;;;;;;;;4995290;28;20050;-79
2023/06/10 22:32:10;;;;;;;3.22;1.50;;;;;;;;;;4995614;28;20961;-78
2023/06/10 22:34:43;;;;;;;7.18;1.70;;;;;;;;;;4995089;28;20041;-79
2023/06/10 22:37:11;;;;;;;3.92;1.77;;;;;;;;;;5007725;28;20050;-79
2023/06/10 22:39:39;;;;;;;5.53;1.80;;;;;;;;;;4996078;28;20133;-78
2023/06/10 22:42:09;;;;;;;5.63;2.03;;;;;;;;;;4993207;28;20128;-79
2023/06/10 22:44:40;;;;;;;5.13;1.80;;;;;;;;;;5025351;28;20419;-79
2023/06/10 22:47:33;;;;;;;6.13;1.92;;;;;;;;;;4995416;28;20046;-79
2023/06/10 22:50:07;;;;;;;7.25;1.92;;;;;;;;;;4992153;28;20045;-79
2023/06/10 22:52:35;;;;;;;5.93;2.00;;;;;;;;;;5008145;28;20079;-79
2023/06/10 22:55:04;;;;;;;5.88;1.40;;;;;;;;;;5016674;28;20100;-78
2023/06/10 22:57:31;;;;;;;9.23;2.08;;;;;;;;;;5000055;28;20464;-79
2023/06/10 22:59:59;;;;;;;4.10;1.65;;;;;;;;;;5029961;28;20049;-79
2023/06/10 23:03:00;;;;;;;6.28;1.60;;;;;;;;;;4998234;28;20050;-84
2023/06/10 23:07:17;;;;;;;3.50;1.48;;;;;;;;;;4995045;28;20050;-84
2023/06/10 23:11:15;;;;;;;6.57;2.03;;;;;;;;;;4994756;28;20069;-84
2023/06/10 23:14:48;;;;;;;7.10;1.75;;;;;;;;;;4997129;28;20521;-85
2023/06/10 23:17:55;;;;;;;5.55;1.65;;;;;;;;;;4993088;28;20427;-82
2023/06/10 23:20:23;;;;;;;3.10;1.42;;;;;;;;;;5003918;28;20096;-83
2023/06/10 23:22:55;;;;;;;3.80;1.55;;;;;;;;;;4996978;28;20136;-84
2023/06/10 23:25:28;;;;;;;4.90;1.77;;;;;;;;;;4997689;28;20563;-83
2023/06/10 23:27:55;;;;;;;6.75;1.52;;;;;;;;;;4998545;28;20046;-84
2023/06/10 23:30:29;;;;;;;8.15;1.75;;;;;;;;;;5016347;28;20134;-83
2023/06/10 23:33:18;;;;;;;6.75;1.73;;;;;;;;;;4998470;28;20046;-83
2023/06/10 23:35:47;;;;;;;6.63;1.30;;;;;;;;;;5001146;28;20527;-84
2023/06/10 23:38:40;;;;;;;4.72;1.50;;;;;;;;;;4999391;28;20042;-84
2023/06/10 23:41:09;;;;;;;8.43;1.55;;;;;;;;;;4999502;28;20507;-82
2023/06/10 23:43:37;;;;;;;7.65;1.52;;;;;;;;;;4982583;28;20148;-83
2023/06/10 23:46:06;;;;;;;4.43;1.40;;;;;;;;;;5016102;28;20065;-83
2023/06/10 23:48:36;;;;;;;8.25;1.90;;;;;;;;;;4995444;28;20515;-84
2023/06/10 23:51:21;;;;;;;3.88;1.30;;;;;;;;;;5023111;28;20111;-83
2023/06/10 23:53:50;;;;;;;8.13;1.48;;;;;;;;;;4996148;28;20054;-84
2023/06/10 23:56:23;;;;;;;6.18;1.50;;;;;;;;;;5005499;28;20042;-83
2023/06/10 23:59:03;;;;;;;4.93;1.30;;;;;;;;;;5002535;28;20057;-84
